createdAt,value
2022-11-15T00:01:24.904Z,14.02
2022-11-15T00:04:11.157Z,13.89
2022-11-15T00:06:56.239Z,13.78
2022-11-15T00:09:45.802Z,13.75
2022-11-15T00:12:31.619Z,13.93
2022-11-15T00:15:16.671Z,13.61
2022-11-15T00:18:01.707Z,13.29
2022-11-15T00:20:47.128Z,13.59
2022-11-15T00:23:34.585Z,13.49
2022-11-15T00:26:19.752Z,13.58
2022-11-15T00:29:05.039Z,13.61
2022-11-15T00:31:50.993Z,13.53
2022-11-15T00:34:36.495Z,13.56
2022-11-15T00:37:21.413Z,13.58
2022-11-15T00:40:08.019Z,13.68
2022-11-15T00:42:52.996Z,13.57
2022-11-15T00:45:38.486Z,13.47
2022-11-15T00:48:23.858Z,13.26
2022-11-15T00:51:08.863Z,13.10
2022-11-15T00:53:54.076Z,13.33
2022-11-15T00:56:39.325Z,13.51
2022-11-15T00:59:24.816Z,13.50
2022-11-15T01:02:10.147Z,13.53
2022-11-15T01:04:55.554Z,13.37
2022-11-15T01:07:40.921Z,13.09
2022-11-15T01:10:26.833Z,12.52
2022-11-15T01:13:12.112Z,12.62
2022-11-15T01:15:57.407Z,12.56
2022-11-15T01:18:42.728Z,12.97
2022-11-15T01:21:27.661Z,13.07
2022-11-15T01:24:13.873Z,12.69
2022-11-15T01:26:59.478Z,12.70
2022-11-15T01:29:44.746Z,12.58
2022-11-15T01:32:30.526Z,12.62
2022-11-15T01:35:15.919Z,12.68
2022-11-15T01:38:00.963Z,12.93
2022-11-15T01:40:46.276Z,12.69
2022-11-15T01:43:37.530Z,12.84
2022-11-15T01:46:22.413Z,12.95
2022-11-15T01:49:15.689Z,12.95
2022-11-15T01:52:04.160Z,12.95
2022-11-15T01:55:04.438Z,13.16
2022-11-15T01:57:54.144Z,13.38
2022-11-15T02:00:39.942Z,13.48
2022-11-15T02:03:36.318Z,13.65
2022-11-15T02:06:23.435Z,13.71
2022-11-15T02:09:08.480Z,13.91
2022-11-15T02:11:55.728Z,13.87
2022-11-15T02:14:43.661Z,13.95
2022-11-15T02:17:47.731Z,13.74
2022-11-15T02:20:57.410Z,13.82
2022-11-15T02:23:58.039Z,13.77
2022-11-15T02:27:03.052Z,14.05
2022-11-15T02:30:07.137Z,14.45
2022-11-15T02:33:15.592Z,14.53
2022-11-15T02:36:03.576Z,14.19
2022-11-15T02:39:08.186Z,14.16
2022-11-15T02:42:00.062Z,13.99
2022-11-15T02:44:47.227Z,13.96
2022-11-15T02:47:39.087Z,13.75
2022-11-15T02:50:28.043Z,13.96
2022-11-15T02:53:15.516Z,14.29
2022-11-15T02:56:02.078Z,14.38
2022-11-15T02:59:08.560Z,14.28
2022-11-15T03:02:06.896Z,14.45
2022-11-15T03:04:59.157Z,14.57
2022-11-15T03:08:02.135Z,14.57
2022-11-15T03:11:09.972Z,14.70
2022-11-15T03:14:02.993Z,15.01
2022-11-15T03:17:13.631Z,15.29
2022-11-15T03:20:01.899Z,15.40
2022-11-15T03:22:49.215Z,15.49
2022-11-15T03:25:38.245Z,15.59
2022-11-15T03:28:31.146Z,15.74
2022-11-15T03:31:38.933Z,15.78
2022-11-15T03:34:32.775Z,15.82
2022-11-15T03:37:21.783Z,15.73
2022-11-15T03:40:07.846Z,15.64
2022-11-15T03:43:06.918Z,15.61
2022-11-15T03:46:05.373Z,15.62
2022-11-15T03:48:55.617Z,15.42
2022-11-15T03:51:41.215Z,15.52
2022-11-15T03:54:26.554Z,15.65
2022-11-15T03:57:12.230Z,15.90
2022-11-15T03:59:57.840Z,16.12
2022-11-15T04:02:43.324Z,16.12
2022-11-15T04:05:28.599Z,16.18
2022-11-15T04:08:13.981Z,16.30
2022-11-15T04:11:01.177Z,16.27
2022-11-15T04:13:47.489Z,16.18
2022-11-15T04:16:32.756Z,16.30
2022-11-15T04:19:36.530Z,16.19
2022-11-15T04:22:40.191Z,15.94
2022-11-15T04:25:31.094Z,15.89
2022-11-15T04:28:17.620Z,15.73
2022-11-15T04:31:02.573Z,15.89
2022-11-15T04:33:47.686Z,16.05
2022-11-15T04:36:51.513Z,16.11
2022-11-15T04:39:36.970Z,16.26
2022-11-15T04:42:22.296Z,16.42
2022-11-15T04:45:07.841Z,16.46
2022-11-15T04:47:53.166Z,16.32
2022-11-15T04:50:38.489Z,16.25
2022-11-15T04:53:24.191Z,16.33
2022-11-15T04:56:09.326Z,16.35
2022-11-15T04:58:55.385Z,16.44
2022-11-15T05:01:44.676Z,16.29
2022-11-15T05:04:30.343Z,16.25
2022-11-15T05:07:15.612Z,16.16
2022-11-15T05:10:00.743Z,16.15
2022-11-15T05:12:48.017Z,15.95
2022-11-15T05:15:33.014Z,16.11
2022-11-15T05:18:23.317Z,16.05
2022-11-15T05:21:11.981Z,15.62
2022-11-15T05:23:57.394Z,15.26
2022-11-15T05:26:42.928Z,15.61
2022-11-15T05:29:28.173Z,15.60
2022-11-15T05:32:14.183Z,15.68
2022-11-15T05:34:59.706Z,15.36
2022-11-15T05:37:45.603Z,15.71
2022-11-15T05:40:32.261Z,15.76
2022-11-15T05:43:17.696Z,15.93
2022-11-15T05:46:05.045Z,16.09
2022-11-15T05:48:52.182Z,15.78
2022-11-15T05:51:37.433Z,15.94
2022-11-15T05:54:24.239Z,16.08
2022-11-15T05:57:09.602Z,15.88
2022-11-15T05:59:56.087Z,16.18
2022-11-15T06:02:41.500Z,16.11
2022-11-15T06:05:26.840Z,16.24
2022-11-15T06:08:13.347Z,16.22
2022-11-15T06:11:04.911Z,16.26
2022-11-15T06:13:50.218Z,16.12
2022-11-15T06:16:36.389Z,16.09
2022-11-15T06:19:21.760Z,16.18
2022-11-15T06:22:06.821Z,16.31
2022-11-15T06:24:52.475Z,16.32
2022-11-15T06:27:37.686Z,16.33
2022-11-15T06:30:24.098Z,16.21
2022-11-15T06:33:09.786Z,16.18
2022-11-15T06:35:55.410Z,15.99
2022-11-15T06:38:40.640Z,16.15
2022-11-15T06:41:26.045Z,16.28
2022-11-15T06:44:11.162Z,16.28
2022-11-15T06:46:56.781Z,16.30
2022-11-15T06:49:42.203Z,16.26
2022-11-15T06:52:33.296Z,16.02
2022-11-15T06:55:18.524Z,16.28
2022-11-15T06:58:04.130Z,16.19
2022-11-15T07:00:49.617Z,16.34
2022-11-15T07:03:42.735Z,16.33
2022-11-15T07:06:27.669Z,16.22
2022-11-15T07:09:13.169Z,23.50
2022-11-15T07:12:02.024Z,34.70
2022-11-15T07:14:50.594Z,36.11
2022-11-15T07:17:35.884Z,37.49
2022-11-15T07:20:21.155Z,37.15
2022-11-15T07:23:06.716Z,37.16
2022-11-15T07:25:51.813Z,34.86
2022-11-15T07:28:37.215Z,33.02
2022-11-15T07:31:23.330Z,33.91
2022-11-15T07:34:09.438Z,35.91
2022-11-15T07:36:54.367Z,34.71
2022-11-15T07:39:39.897Z,33.56
2022-11-15T07:42:43.322Z,36.03
2022-11-15T07:45:29.182Z,37.66
2022-11-15T07:48:14.802Z,38.77
2022-11-15T07:51:00.002Z,41.20
2022-11-15T07:53:45.548Z,42.34
2022-11-15T07:56:30.627Z,42.06
2022-11-15T07:59:15.894Z,32.69
2022-11-15T08:02:01.581Z,27.71
2022-11-15T08:04:47.003Z,26.18
2022-11-15T08:07:32.550Z,25.18
2022-11-15T08:10:20.028Z,25.62
2022-11-15T08:13:10.907Z,25.15
2022-11-15T08:16:00.447Z,24.97
2022-11-15T08:18:46.134Z,24.83
2022-11-15T08:21:31.451Z,24.93
2022-11-15T08:24:16.643Z,24.37
2022-11-15T08:27:01.989Z,23.80
2022-11-15T08:29:49.454Z,24.36
2022-11-15T08:32:35.126Z,24.60
2022-11-15T08:35:26.145Z,24.18
2022-11-15T08:38:14.348Z,24.44
2022-11-15T08:41:04.904Z,24.38
2022-11-15T08:43:50.025Z,24.67
2022-11-15T08:46:35.667Z,24.04
2022-11-15T08:49:21.164Z,24.45
2022-11-15T08:52:06.751Z,24.38
2022-11-15T08:54:51.975Z,24.32
2022-11-15T08:57:37.454Z,24.00
2022-11-15T09:00:22.828Z,23.58
2022-11-15T09:03:10.034Z,23.28
2022-11-15T09:05:57.474Z,23.86
2022-11-15T09:08:49.550Z,23.73
2022-11-15T09:11:35.597Z,23.45
2022-11-15T09:14:20.519Z,23.79
2022-11-15T09:17:09.469Z,23.77
2022-11-15T09:19:54.497Z,23.88
2022-11-15T09:22:40.062Z,23.41
2022-11-15T09:25:25.201Z,23.41
2022-11-15T09:28:10.715Z,23.39
2022-11-15T09:31:00.991Z,23.74
2022-11-15T09:33:47.147Z,23.73
2022-11-15T09:36:32.851Z,23.47
2022-11-15T09:39:17.890Z,23.36
2022-11-15T09:42:23.377Z,23.33
2022-11-15T09:45:27.048Z,23.66
2022-11-15T09:48:47.446Z,23.40
2022-11-15T09:51:35.778Z,24.23
2022-11-15T09:54:37.938Z,23.69
2022-11-15T09:56:58.099Z,23.81
2022-11-15T09:59:45.839Z,24.10
2022-11-15T10:02:18.528Z,24.57
2022-11-15T10:04:45.704Z,24.54
2022-11-15T10:07:24.808Z,24.99
2022-11-15T10:09:58.143Z,24.66
2022-11-15T10:12:26.625Z,24.90
2022-11-15T10:15:04.673Z,25.03
2022-11-15T10:17:59.141Z,25.11
2022-11-15T10:20:29.045Z,25.52
2022-11-15T10:23:01.414Z,25.59
2022-11-15T10:25:30.504Z,25.38
2022-11-15T10:28:01.876Z,25.52
2022-11-15T10:30:40.374Z,24.93
2022-11-15T10:33:18.382Z,26.16
2022-11-15T10:35:45.406Z,26.22
2022-11-15T10:38:13.429Z,26.29
2022-11-15T10:40:42.613Z,26.46
2022-11-15T10:43:16.621Z,26.83
2022-11-15T10:45:43.930Z,26.58
2022-11-15T10:48:13.599Z,26.89
2022-11-15T10:50:42.373Z,27.16
2022-11-15T10:53:31.582Z,27.09
2022-11-15T10:56:03.946Z,26.95
2022-11-15T10:58:38.237Z,27.26
2022-11-15T11:01:10.653Z,26.75
2022-11-15T11:03:39.161Z,27.38
2022-11-15T11:06:08.790Z,27.23
2022-11-15T11:08:36.459Z,27.34
2022-11-15T11:11:04.750Z,27.88
2022-11-15T11:13:40.724Z,27.10
2022-11-15T11:16:16.989Z,26.00
2022-11-15T11:18:50.128Z,26.11
2022-11-15T11:21:40.221Z,25.57
2022-11-15T11:24:19.595Z,25.68
2022-11-15T11:27:30.958Z,25.45
2022-11-15T11:30:22.770Z,25.86
2022-11-15T11:33:07.697Z,25.30
2022-11-15T11:36:07.518Z,25.11
2022-11-15T11:38:39.917Z,25.43
2022-11-15T11:41:12.616Z,25.17
2022-11-15T11:43:53.409Z,25.29
2022-11-15T11:47:01.554Z,25.80
2022-11-15T11:49:40.269Z,25.48
2022-11-15T11:52:15.857Z,26.40
2022-11-15T11:55:03.859Z,26.06
2022-11-15T11:57:54.507Z,25.75
2022-11-15T12:00:23.672Z,25.56
2022-11-15T12:03:21.501Z,26.04
2022-11-15T12:05:55.007Z,25.47
2022-11-15T12:08:29.806Z,25.55
2022-11-15T12:11:15.777Z,25.44
2022-11-15T12:13:44.331Z,25.72
2022-11-15T12:16:32.990Z,25.75
2022-11-15T12:19:04.671Z,25.74
2022-11-15T12:21:48.412Z,26.25
2022-11-15T12:24:28.672Z,26.49
2022-11-15T12:27:06.559Z,25.83
2022-11-15T12:29:38.950Z,25.83
2022-11-15T12:32:33.744Z,25.77
2022-11-15T12:35:02.839Z,26.10
2022-11-15T12:37:41.512Z,26.38
2022-11-15T12:40:19.422Z,26.18
2022-11-15T12:43:15.481Z,25.63
2022-11-15T12:45:44.957Z,25.71
2022-11-15T12:48:17.570Z,25.85
2022-11-15T12:50:56.053Z,25.51
2022-11-15T12:53:25.447Z,25.42
2022-11-15T12:56:13.135Z,24.71
2022-11-15T12:58:47.249Z,24.35
2022-11-15T13:01:32.325Z,24.25
2022-11-15T13:04:20.939Z,24.17
2022-11-15T13:06:50.331Z,24.10
2022-11-15T13:09:35.112Z,24.14
2022-11-15T13:12:27.625Z,25.04
2022-11-15T13:15:22.773Z,24.43
2022-11-15T13:17:51.251Z,24.76
2022-11-15T13:20:19.877Z,25.02
2022-11-15T13:23:03.040Z,24.36
2022-11-15T13:26:06.749Z,24.28
2022-11-15T13:28:42.071Z,24.53
2022-11-15T13:31:22.380Z,23.81
2022-11-15T13:33:49.186Z,24.12
2022-11-15T13:36:30.334Z,24.13
2022-11-15T13:39:03.523Z,24.58
2022-11-15T13:41:33.554Z,24.42
2022-11-15T13:44:02.318Z,24.17
2022-11-15T13:46:28.873Z,23.95
2022-11-15T13:48:59.843Z,24.55
2022-11-15T13:51:32.285Z,24.10
2022-11-15T13:54:09.360Z,24.32
2022-11-15T13:56:37.266Z,24.38
2022-11-15T13:59:25.848Z,23.87
2022-11-15T14:01:53.744Z,23.88
2022-11-15T14:04:24.268Z,23.88
2022-11-15T14:06:56.151Z,23.57
2022-11-15T14:09:37.598Z,24.54
2022-11-15T14:12:33.850Z,24.43
2022-11-15T14:15:03.733Z,24.71
2022-11-15T14:17:30.206Z,24.92
2022-11-15T14:19:58.094Z,25.25
2022-11-15T14:22:26.955Z,24.79
2022-11-15T14:25:16.059Z,25.18
2022-11-15T14:27:45.063Z,24.92
2022-11-15T14:30:17.874Z,25.17
2022-11-15T14:32:50.139Z,25.14
2022-11-15T14:35:22.718Z,24.48
2022-11-15T14:37:49.908Z,24.69
2022-11-15T14:40:22.715Z,24.55
2022-11-15T14:42:50.833Z,24.47
2022-11-15T14:45:20.334Z,25.10
2022-11-15T14:47:47.151Z,25.40
2022-11-15T14:50:15.100Z,24.79
2022-11-15T14:52:42.138Z,24.62
2022-11-15T14:55:15.642Z,24.73
2022-11-15T14:57:42.464Z,24.54
2022-11-15T15:00:10.879Z,24.73
2022-11-15T15:02:41.844Z,24.86
2022-11-15T15:05:21.616Z,25.13
2022-11-15T15:07:48.741Z,25.65
2022-11-15T15:13:03.747Z,24.67
2022-11-15T15:15:38.630Z,24.95
2022-11-15T15:18:06.174Z,25.42
2022-11-15T15:20:33.567Z,25.65
2022-11-15T15:23:00.153Z,25.51
2022-11-15T15:25:29.491Z,25.11
2022-11-15T15:27:56.494Z,24.91
2022-11-15T15:30:24.722Z,24.72
2022-11-15T15:32:51.653Z,23.81
2022-11-15T15:35:19.651Z,24.09
2022-11-15T15:37:48.533Z,24.51
2022-11-15T15:40:18.146Z,24.51
2022-11-15T15:42:45.036Z,24.42
2022-11-15T15:45:12.328Z,23.95
2022-11-15T15:47:39.723Z,24.01
2022-11-15T15:50:21.755Z,23.77
2022-11-15T15:52:49.419Z,23.84
2022-11-15T15:55:16.084Z,23.75
2022-11-15T15:57:43.210Z,23.72
2022-11-15T16:00:11.055Z,23.35
2022-11-15T16:02:41.289Z,23.70
2022-11-15T16:05:08.949Z,23.74
2022-11-15T16:07:35.786Z,23.55
2022-11-15T16:10:04.081Z,23.70
2022-11-15T16:12:33.372Z,24.03
2022-11-15T16:15:02.652Z,24.19
2022-11-15T16:17:35.769Z,24.59
2022-11-15T16:20:02.735Z,24.80
2022-11-15T16:22:30.128Z,24.62
2022-11-15T16:24:57.354Z,24.69
2022-11-15T16:27:25.274Z,24.81
2022-11-15T16:29:51.858Z,24.36
2022-11-15T16:32:18.687Z,24.49
2022-11-15T16:34:49.054Z,24.49
2022-11-15T16:37:23.518Z,24.24
2022-11-15T16:39:50.602Z,24.22
2022-11-15T16:42:17.225Z,23.88
2022-11-15T16:44:45.460Z,23.75
2022-11-15T16:47:17.872Z,23.49
2022-11-15T16:49:45.285Z,23.70
2022-11-15T16:52:12.224Z,23.23
2022-11-15T16:54:38.872Z,23.23
2022-11-15T16:57:05.448Z,23.49
2022-11-15T16:59:38.135Z,22.99
2022-11-15T17:02:09.602Z,23.01
2022-11-15T17:04:36.312Z,22.92
2022-11-15T17:07:03.507Z,22.88
2022-11-15T17:09:30.890Z,22.64
2022-11-15T17:11:57.529Z,23.26
2022-11-15T17:14:24.098Z,22.95
2022-11-15T17:16:50.675Z,23.05
2022-11-15T17:19:19.241Z,22.96
2022-11-15T17:21:47.116Z,23.02
2022-11-15T17:24:13.981Z,23.08
2022-11-15T17:26:42.747Z,22.79
2022-11-15T17:29:09.566Z,23.11
2022-11-15T17:31:37.023Z,23.16
2022-11-15T17:34:05.384Z,23.04
2022-11-15T17:36:32.254Z,22.89
2022-11-15T17:39:00.008Z,22.14
2022-11-15T17:41:28.243Z,22.73
2022-11-15T17:43:59.992Z,22.55
2022-11-15T17:46:28.081Z,22.46
2022-11-15T17:48:55.875Z,22.38
2022-11-15T17:51:23.942Z,22.03
2022-11-15T17:53:51.419Z,21.89
2022-11-15T17:56:20.877Z,22.12
2022-11-15T17:58:52.557Z,21.60
2022-11-15T18:01:20.882Z,21.45
2022-11-15T18:03:48.056Z,21.38
2022-11-15T18:06:16.115Z,21.30
2022-11-15T18:08:44.371Z,21.23
2022-11-15T18:11:22.795Z,21.53
2022-11-15T18:13:52.636Z,21.55
2022-11-15T18:16:27.362Z,22.02
2022-11-15T18:18:54.942Z,21.84
2022-11-15T18:21:23.818Z,21.68
2022-11-15T18:23:55.326Z,21.27
2022-11-15T18:26:27.137Z,21.42
2022-11-15T18:28:56.257Z,21.24
2022-11-15T18:31:25.768Z,21.73
2022-11-15T18:33:53.427Z,21.49
2022-11-15T18:36:21.753Z,21.54
2022-11-15T18:38:48.493Z,22.10
2022-11-15T18:41:20.473Z,21.73
2022-11-15T18:43:50.689Z,21.17
2022-11-15T18:46:20.832Z,21.19
2022-11-15T18:48:50.516Z,21.37
2022-11-15T18:51:29.793Z,21.39
2022-11-15T18:53:58.448Z,21.10
2022-11-15T18:56:26.884Z,21.52
2022-11-15T18:58:55.794Z,21.25
2022-11-15T19:01:27.974Z,21.14
2022-11-15T19:03:56.736Z,20.96
2022-11-15T19:06:26.022Z,21.34
2022-11-15T19:08:56.515Z,21.31
2022-11-15T19:11:32.082Z,20.91
2022-11-15T19:14:05.314Z,21.39
2022-11-15T19:16:34.304Z,20.96
2022-11-15T19:19:03.406Z,20.59
2022-11-15T19:21:31.299Z,20.65
2022-11-15T19:23:59.219Z,20.75
2022-11-15T19:26:26.975Z,20.92
2022-11-15T19:28:58.876Z,20.84
2022-11-15T19:31:26.646Z,21.29
2022-11-15T19:33:54.256Z,21.10
2022-11-15T19:36:32.615Z,20.95
2022-11-15T19:39:01.940Z,20.49
2022-11-15T19:41:28.537Z,20.51
2022-11-15T19:43:55.438Z,20.77
2022-11-15T19:46:23.554Z,20.55
2022-11-15T19:48:51.471Z,20.50
2022-11-15T19:51:26.322Z,20.50
2022-11-15T19:53:54.460Z,20.44
2022-11-15T19:56:21.976Z,20.73
2022-11-15T19:58:53.901Z,21.23
2022-11-15T20:01:21.758Z,20.92
2022-11-15T20:03:50.054Z,21.00
2022-11-15T20:06:25.141Z,21.28
2022-11-15T20:08:51.952Z,21.42
2022-11-15T20:11:19.604Z,21.47
2022-11-15T20:13:47.211Z,21.43
2022-11-15T20:16:20.025Z,20.84
2022-11-15T20:18:48.222Z,20.83
2022-11-15T20:21:15.254Z,21.65
2022-11-15T20:23:42.634Z,21.78
2022-11-15T20:26:10.573Z,21.85
2022-11-15T20:28:38.861Z,21.24
2022-11-15T20:31:06.357Z,21.99
2022-11-15T20:33:34.002Z,21.24
2022-11-15T20:36:11.645Z,21.42
2022-11-15T20:38:38.273Z,21.50
2022-11-15T20:41:05.311Z,21.45
2022-11-15T20:43:31.890Z,21.37
2022-11-15T20:45:58.669Z,21.56
2022-11-15T20:48:25.289Z,21.30
2022-11-15T20:50:52.158Z,21.21
2022-11-15T20:53:20.186Z,21.25
2022-11-15T20:55:49.468Z,21.38
2022-11-15T20:58:17.418Z,21.27
2022-11-15T21:00:46.176Z,21.46
2022-11-15T21:03:14.320Z,21.40
2022-11-15T21:05:43.868Z,21.61
2022-11-15T21:08:11.715Z,21.29
2022-11-15T21:10:58.682Z,21.35
2022-11-15T21:13:26.021Z,21.49
2022-11-15T21:15:56.578Z,21.96
2022-11-15T21:18:23.308Z,21.55
2022-11-15T21:20:50.442Z,21.39
2022-11-15T21:23:17.030Z,21.11
2022-11-15T21:25:50.117Z,21.01
2022-11-15T21:28:17.410Z,21.35
2022-11-15T21:30:55.549Z,21.60
2022-11-15T21:33:24.214Z,21.18
2022-11-15T21:35:51.449Z,21.83
2022-11-15T21:38:18.198Z,21.52
2022-11-15T21:40:45.429Z,20.95
2022-11-15T21:43:12.506Z,21.37
2022-11-15T21:45:39.060Z,20.97
2022-11-15T21:48:06.092Z,20.68
2022-11-15T21:50:33.026Z,20.92
2022-11-15T21:52:59.987Z,20.78
2022-11-15T21:55:26.563Z,20.57
2022-11-15T21:57:53.130Z,20.57
2022-11-15T22:00:38.255Z,21.06
2022-11-15T22:03:04.810Z,20.99
2022-11-15T22:05:31.738Z,21.02
2022-11-15T22:07:58.261Z,20.99
2022-11-15T22:10:24.810Z,21.39
2022-11-15T22:12:51.332Z,21.01
2022-11-15T22:15:18.348Z,21.38
2022-11-15T22:17:59.893Z,21.38
2022-11-15T22:20:43.960Z,21.48
2022-11-15T22:23:11.330Z,21.07
2022-11-15T22:25:38.087Z,20.93
2022-11-15T22:28:04.770Z,21.06
2022-11-15T22:30:32.162Z,20.75
2022-11-15T22:32:58.722Z,21.12
2022-11-15T22:35:25.320Z,21.15
2022-11-15T22:37:52.720Z,20.71
2022-11-15T22:40:19.412Z,21.00
2022-11-15T22:42:45.994Z,20.53
2022-11-15T22:45:12.581Z,20.95
2022-11-15T22:47:39.119Z,20.66
2022-11-15T22:50:06.427Z,20.74
2022-11-15T22:52:33.192Z,20.45
2022-11-15T22:55:00.198Z,20.32
2022-11-15T22:57:26.777Z,20.29
2022-11-15T22:59:53.346Z,20.23
2022-11-15T23:02:19.915Z,20.58
2022-11-15T23:04:46.533Z,20.46
2022-11-15T23:07:13.584Z,20.53
2022-11-15T23:09:40.308Z,20.74
2022-11-15T23:12:27.067Z,20.66
2022-11-15T23:14:53.610Z,20.77
2022-11-15T23:17:20.682Z,20.72
2022-11-15T23:19:47.419Z,20.64
2022-11-15T23:22:32.746Z,21.20
2022-11-15T23:24:59.843Z,21.35
2022-11-15T23:27:27.321Z,21.35
2022-11-15T23:30:12.562Z,20.84
2022-11-15T23:32:58.336Z,20.15
2022-11-15T23:35:24.935Z,20.61
2022-11-15T23:37:51.994Z,20.70
2022-11-15T23:40:18.818Z,20.57
2022-11-15T23:42:45.542Z,20.26
2022-11-15T23:45:12.436Z,20.85
2022-11-15T23:47:39.373Z,20.26
2022-11-15T23:50:06.462Z,20.50
2022-11-15T23:52:33.082Z,20.19
2022-11-15T23:54:59.695Z,20.43
2022-11-15T23:57:26.277Z,20.33
2022-11-15T23:59:53.283Z,20.83
